createdAt,value
2018-03-26T00:00:40.115Z,98149.66
2018-03-26T00:03:07.525Z,98156.23
2018-03-26T00:05:34.938Z,98155.59
2018-03-26T00:08:02.834Z,98150.45
2018-03-26T00:10:30.302Z,98153.33
2018-03-26T00:12:57.754Z,98146.17
2018-03-26T00:15:25.166Z,98150.19
2018-03-26T00:17:52.651Z,98141.23
2018-03-26T00:20:20.210Z,98142.49
2018-03-26T00:22:47.620Z,98137.45
2018-03-26T00:25:15.035Z,98150.27
2018-03-26T00:27:42.502Z,98146.80
2018-03-26T00:30:09.921Z,98150.03
2018-03-26T00:32:37.329Z,98150.86
2018-03-26T00:35:04.752Z,98149.74
2018-03-26T00:37:32.163Z,98154.13
2018-03-26T00:39:59.581Z,98154.84
2018-03-26T00:42:27.162Z,98158.67
2018-03-26T00:44:54.648Z,98160.10
2018-03-26T00:47:22.051Z,98162.08
2018-03-26T00:49:49.491Z,98165.81
2018-03-26T00:52:17.077Z,98168.80
2018-03-26T00:54:44.481Z,98163.52
2018-03-26T00:57:11.899Z,98159.62
2018-03-26T00:59:39.314Z,98161.34
2018-03-26T01:02:06.742Z,98158.48
2018-03-26T01:04:34.317Z,98165.04
2018-03-26T01:07:01.743Z,98164.09
2018-03-26T01:09:29.877Z,98164.42
2018-03-26T01:11:58.105Z,98171.95
2018-03-26T01:14:25.519Z,98166.16
2018-03-26T01:16:52.938Z,98165.92
2018-03-26T01:19:20.341Z,98170.48
2018-03-26T01:21:47.755Z,98172.23
2018-03-26T01:24:15.170Z,98168.38
2018-03-26T01:26:42.599Z,98169.45
2018-03-26T01:29:10.130Z,98163.38
2018-03-26T01:31:37.544Z,98163.16
2018-03-26T01:34:04.968Z,98162.19
2018-03-26T01:36:32.378Z,98174.41
2018-03-26T01:38:59.795Z,98163.36
2018-03-26T01:41:27.220Z,98160.58
2018-03-26T01:43:54.631Z,98169.72
2018-03-26T01:46:22.051Z,98169.94
2018-03-26T01:48:49.461Z,98173.00
2018-03-26T01:51:16.882Z,98167.86
2018-03-26T01:53:44.302Z,98172.39
2018-03-26T01:56:11.714Z,98177.41
2018-03-26T01:58:39.190Z,98182.59
2018-03-26T02:01:06.655Z,98197.13
2018-03-26T02:03:34.062Z,98188.38
2018-03-26T02:06:01.500Z,98192.08
2018-03-26T02:08:29.171Z,98180.94
2018-03-26T02:10:56.589Z,98185.28
2018-03-26T02:13:23.998Z,98183.86
2018-03-26T02:15:51.442Z,98183.19
2018-03-26T02:18:18.895Z,98180.84
2018-03-26T02:20:46.298Z,98181.02
2018-03-26T02:23:13.721Z,98181.63
2018-03-26T02:25:41.139Z,98184.75
2018-03-26T02:28:08.554Z,98185.73
2018-03-26T02:30:35.970Z,98184.69
2018-03-26T02:33:03.386Z,98192.56
2018-03-26T02:35:31.170Z,98188.20
2018-03-26T02:37:58.668Z,98190.88
2018-03-26T02:40:26.075Z,98185.94
2018-03-26T02:42:53.491Z,98187.34
2018-03-26T02:45:20.906Z,98191.75
2018-03-26T02:47:48.335Z,98196.14
2018-03-26T02:50:15.734Z,98193.70
2018-03-26T02:52:43.250Z,98188.38
2018-03-26T02:55:10.667Z,98188.12
2018-03-26T02:57:38.075Z,98187.69
2018-03-26T03:00:08.286Z,98186.05
2018-03-26T03:02:35.713Z,98191.00
2018-03-26T03:05:03.124Z,98184.89
2018-03-26T03:07:30.529Z,98187.09
2018-03-26T03:09:57.946Z,98195.58
2018-03-26T03:12:25.358Z,98193.25
2018-03-26T03:14:52.769Z,98195.57
2018-03-26T03:17:20.184Z,98200.40
2018-03-26T03:19:47.592Z,98204.90
2018-03-26T03:22:14.997Z,98208.87
2018-03-26T03:24:42.422Z,98204.79
2018-03-26T03:27:09.826Z,98214.22
2018-03-26T03:29:37.249Z,98220.38
2018-03-26T03:32:04.694Z,98216.22
2018-03-26T03:34:33.122Z,98222.68
2018-03-26T03:37:00.537Z,98226.58
2018-03-26T03:39:27.946Z,98226.05
2018-03-26T03:41:55.354Z,98217.51
2018-03-26T03:44:22.790Z,98219.94
2018-03-26T03:46:50.208Z,98224.68
2018-03-26T03:49:17.629Z,98222.41
2018-03-26T03:51:45.081Z,98227.19
2018-03-26T03:54:12.519Z,98240.17
2018-03-26T03:56:39.927Z,98241.39
2018-03-26T03:59:07.618Z,98239.33
2018-03-26T04:01:35.020Z,98234.08
2018-03-26T04:04:02.455Z,98242.42
2018-03-26T04:06:29.849Z,98246.32
2018-03-26T04:08:57.278Z,98246.75
2018-03-26T04:11:24.688Z,98245.23
2018-03-26T04:13:52.103Z,98252.38
2018-03-26T04:16:19.569Z,98256.25
2018-03-26T04:18:46.996Z,98253.58
2018-03-26T04:21:14.405Z,98255.89
2018-03-26T04:23:41.821Z,98251.15
2018-03-26T04:26:09.367Z,98250.61
2018-03-26T04:28:36.774Z,98257.38
2018-03-26T04:31:04.203Z,98259.20
2018-03-26T04:33:31.669Z,98266.94
2018-03-26T04:35:59.096Z,98269.95
2018-03-26T04:38:26.778Z,98271.66
2018-03-26T04:40:54.194Z,98273.89
2018-03-26T04:43:21.792Z,98278.06
2018-03-26T04:45:49.214Z,98274.43
2018-03-26T04:48:16.618Z,98278.85
2018-03-26T04:50:44.047Z,98278.28
2018-03-26T04:53:11.453Z,98281.35
2018-03-26T04:55:38.890Z,98284.98
2018-03-26T04:58:06.479Z,98286.25
2018-03-26T05:00:33.914Z,98289.02
2018-03-26T05:03:01.331Z,98285.52
2018-03-26T05:05:28.766Z,98285.63
2018-03-26T05:07:56.178Z,98289.53
2018-03-26T05:10:23.609Z,98286.01
2018-03-26T05:12:51.014Z,98284.75
2018-03-26T05:15:18.432Z,98299.78
2018-03-26T05:17:45.853Z,98297.61
2018-03-26T05:20:13.272Z,98291.91
2018-03-26T05:22:40.698Z,98292.80
2018-03-26T05:25:08.138Z,98295.87
2018-03-26T05:27:35.545Z,98298.02
2018-03-26T05:30:02.965Z,98304.20
2018-03-26T05:32:30.379Z,98298.77
2018-03-26T05:34:57.838Z,98302.46
2018-03-26T05:37:25.255Z,98310.11
2018-03-26T05:39:52.668Z,98306.80
2018-03-26T05:42:20.084Z,98312.16
2018-03-26T05:44:47.541Z,98306.81
2018-03-26T05:47:15.029Z,98310.53
2018-03-26T05:49:43.584Z,98315.20
2018-03-26T05:52:11.008Z,98318.59
2018-03-26T05:54:38.914Z,98314.06
2018-03-26T05:57:06.355Z,98316.23
2018-03-26T05:59:33.771Z,98322.73
2018-03-26T06:02:01.196Z,98331.85
2018-03-26T06:04:28.610Z,98333.56
2018-03-26T06:06:56.025Z,98330.59
2018-03-26T06:09:23.441Z,98333.25
2018-03-26T06:11:50.873Z,98331.56
2018-03-26T06:14:18.415Z,98342.97
2018-03-26T06:16:57.781Z,98348.11
2018-03-26T06:19:25.194Z,98341.36
2018-03-26T06:21:52.670Z,98353.57
2018-03-26T06:24:20.042Z,98348.16
2018-03-26T06:26:47.454Z,98354.17
2018-03-26T06:29:14.878Z,98355.72
2018-03-26T06:31:42.362Z,98348.00
2018-03-26T06:34:10.741Z,98354.84
2018-03-26T06:36:43.696Z,98356.56
2018-03-26T06:39:15.635Z,98355.98
2018-03-26T06:41:43.034Z,98367.67
2018-03-26T06:44:11.260Z,98360.36
2018-03-26T06:46:38.639Z,98369.59
2018-03-26T06:49:06.106Z,98376.87
2018-03-26T06:51:33.519Z,98377.61
2018-03-26T06:54:00.930Z,98382.37
2018-03-26T06:56:28.355Z,98393.48
2018-03-26T06:58:55.774Z,98389.78
2018-03-26T07:01:23.183Z,98385.89
2018-03-26T07:03:50.606Z,98394.81
2018-03-26T07:06:18.006Z,98394.41
2018-03-26T07:08:45.543Z,98396.65
2018-03-26T07:11:13.566Z,98394.08
2018-03-26T07:13:40.990Z,98403.33
2018-03-26T07:16:08.407Z,98403.28
2018-03-26T07:18:35.818Z,98405.28
2018-03-26T07:21:03.236Z,98411.32
2018-03-26T07:23:30.735Z,98407.14
2018-03-26T07:25:58.156Z,98408.28
2018-03-26T07:28:25.566Z,98408.61
2018-03-26T07:30:52.972Z,98418.75
2018-03-26T07:33:20.488Z,98415.92
2018-03-26T07:35:47.912Z,98423.42
2018-03-26T07:38:15.315Z,98425.61
2018-03-26T07:40:42.791Z,98429.94
2018-03-26T07:43:10.214Z,98429.87
2018-03-26T07:45:37.632Z,98432.65
2018-03-26T07:48:05.042Z,98433.41
2018-03-26T07:50:32.450Z,98437.66
2018-03-26T07:52:59.860Z,98436.17
2018-03-26T07:55:27.275Z,98443.52
2018-03-26T07:57:54.699Z,98433.95
2018-03-26T08:00:22.118Z,98437.70
2018-03-26T08:02:49.536Z,98439.67
2018-03-26T08:05:16.955Z,98444.75
2018-03-26T08:07:45.201Z,98442.56
2018-03-26T08:10:12.897Z,98447.86
2018-03-26T08:12:40.364Z,98449.59
2018-03-26T08:15:07.790Z,98449.48
2018-03-26T08:17:35.219Z,98450.20
2018-03-26T08:20:02.642Z,98460.68
2018-03-26T08:22:30.106Z,98457.77
2018-03-26T08:24:57.526Z,98459.00
2018-03-26T08:27:24.945Z,98462.11
2018-03-26T08:29:52.369Z,98464.83
2018-03-26T08:32:29.052Z,98472.34
2018-03-26T08:35:13.528Z,98480.13
2018-03-26T08:37:43.589Z,98479.66
2018-03-26T08:40:29.464Z,98469.60
2018-03-26T08:42:56.886Z,98472.09
2018-03-26T08:45:24.316Z,98477.33
2018-03-26T08:47:51.722Z,98479.94
2018-03-26T08:50:19.973Z,98475.42
2018-03-26T08:52:47.378Z,98479.91
2018-03-26T08:55:14.791Z,98477.67
2018-03-26T08:57:42.198Z,98477.41
2018-03-26T09:00:09.611Z,98480.77
2018-03-26T09:02:37.095Z,98484.57
2018-03-26T09:05:04.545Z,98486.73
2018-03-26T09:07:31.970Z,98493.23
2018-03-26T09:09:59.450Z,98495.36
2018-03-26T09:12:26.870Z,98496.89
2018-03-26T09:14:54.305Z,98497.02
2018-03-26T09:17:21.793Z,98494.92
2018-03-26T09:19:49.538Z,98499.56
2018-03-26T09:22:17.785Z,98503.62
2018-03-26T09:24:45.189Z,98502.42
2018-03-26T09:27:12.624Z,98507.27
2018-03-26T09:29:40.024Z,98504.59
2018-03-26T09:32:07.456Z,98510.59
2018-03-26T09:34:34.861Z,98507.91
2018-03-26T09:37:02.318Z,98512.97
2018-03-26T09:39:29.742Z,98511.53
2018-03-26T09:41:57.259Z,98510.69
2018-03-26T09:44:24.672Z,98511.14
2018-03-26T09:46:52.101Z,98511.33
2018-03-26T09:49:19.532Z,98517.69
2018-03-26T09:51:46.943Z,98512.95
2018-03-26T09:54:14.354Z,98523.77
2018-03-26T09:56:41.769Z,98526.77
2018-03-26T09:59:09.176Z,98523.95
2018-03-26T10:01:42.145Z,98526.30
2018-03-26T10:04:09.584Z,98528.02
2018-03-26T10:06:37.018Z,98533.77
2018-03-26T10:09:04.439Z,98537.52
2018-03-26T10:11:31.866Z,98530.83
2018-03-26T10:13:59.282Z,98536.50
2018-03-26T10:16:26.708Z,98535.88
2018-03-26T10:18:54.124Z,98542.79
2018-03-26T10:21:21.531Z,98538.88
2018-03-26T10:23:49.425Z,98543.84
2018-03-26T10:26:16.850Z,98542.89
2018-03-26T10:28:44.261Z,98540.30
2018-03-26T10:31:11.707Z,98544.44
2018-03-26T10:33:39.120Z,98543.69
2018-03-26T10:36:06.551Z,98536.88
2018-03-26T10:38:33.970Z,98540.92
2018-03-26T10:41:01.395Z,98539.45
2018-03-26T10:43:28.869Z,98541.98
2018-03-26T10:45:56.278Z,98543.76
2018-03-26T10:48:23.704Z,98545.27
2018-03-26T10:50:51.110Z,98544.36
2018-03-26T10:53:18.531Z,98540.74
2018-03-26T10:55:45.934Z,98540.95
2018-03-26T10:58:13.366Z,98542.20
2018-03-26T11:00:40.789Z,98538.70
2018-03-26T11:03:08.218Z,98541.70
2018-03-26T11:05:35.637Z,98551.10
2018-03-26T11:08:03.063Z,98549.75
2018-03-26T11:10:30.482Z,98547.92
2018-03-26T11:12:57.905Z,98549.80
2018-03-26T11:15:25.318Z,98551.56
2018-03-26T11:17:52.757Z,98547.55
2018-03-26T11:20:21.093Z,98554.50
2018-03-26T11:22:48.518Z,98548.02
2018-03-26T11:25:15.937Z,98540.14
2018-03-26T11:27:43.374Z,98538.44
2018-03-26T11:30:10.808Z,98545.11
2018-03-26T11:32:38.313Z,98543.55
2018-03-26T11:35:05.720Z,98539.22
2018-03-26T11:37:33.142Z,98535.01
2018-03-26T11:40:00.558Z,98543.95
2018-03-26T11:42:28.022Z,98540.17
2018-03-26T11:44:55.436Z,98533.97
2018-03-26T11:47:23.022Z,98535.34
2018-03-26T11:49:50.435Z,98536.55
2018-03-26T11:52:17.866Z,98537.84
2018-03-26T11:54:45.282Z,98533.32
2018-03-26T11:57:12.699Z,98535.88
2018-03-26T11:59:41.064Z,98528.89
2018-03-26T12:02:08.479Z,98536.06
2018-03-26T12:04:35.895Z,98532.50
2018-03-26T12:07:03.305Z,98538.96
2018-03-26T12:09:30.737Z,98544.46
2018-03-26T12:11:58.187Z,98549.92
2018-03-26T12:14:25.632Z,98547.00
2018-03-26T12:16:53.084Z,98551.65
2018-03-26T12:19:20.500Z,98547.31
2018-03-26T12:21:47.907Z,98545.70
2018-03-26T12:24:27.345Z,98550.34
2018-03-26T12:26:54.751Z,98548.34
2018-03-26T12:29:34.984Z,98547.92
2018-03-26T12:32:02.502Z,98551.04
2018-03-26T12:37:23.716Z,98550.84
2018-03-26T12:39:51.139Z,98553.44
2018-03-26T12:42:18.563Z,98557.55
2018-03-26T12:44:57.846Z,98555.34
2018-03-26T12:47:25.254Z,98564.20
2018-03-26T12:49:52.684Z,98561.20
2018-03-26T12:52:31.815Z,98566.06
2018-03-26T12:54:59.236Z,98566.17
2018-03-26T12:57:38.487Z,98569.72
2018-03-26T13:00:05.975Z,98571.02
2018-03-26T13:02:33.332Z,98568.56
2018-03-26T13:05:00.750Z,98573.21
2018-03-26T13:07:28.172Z,98583.89
2018-03-26T13:09:55.614Z,98583.98
2018-03-26T13:12:23.053Z,98590.16
2018-03-26T13:14:50.456Z,98593.62
2018-03-26T13:17:17.863Z,98592.41
2018-03-26T13:19:45.288Z,98593.42
2018-03-26T13:22:12.747Z,98585.97
2018-03-26T13:24:40.166Z,98591.87
2018-03-26T13:27:07.580Z,98589.48
2018-03-26T13:29:35.004Z,98599.84
2018-03-26T13:32:02.422Z,98594.88
2018-03-26T13:34:29.865Z,98599.58
2018-03-26T13:36:57.271Z,98602.02
2018-03-26T13:39:25.242Z,98604.22
2018-03-26T13:41:52.664Z,98603.55
2018-03-26T13:44:20.074Z,98602.28
2018-03-26T13:46:47.491Z,98609.75
2018-03-26T13:49:14.917Z,98603.11
2018-03-26T13:51:42.322Z,98610.03
2018-03-26T13:54:09.737Z,98612.07
2018-03-26T13:56:37.195Z,98604.37
2018-03-26T13:59:04.606Z,98611.77
2018-03-26T14:01:32.039Z,98612.48
2018-03-26T14:03:59.455Z,98618.95
2018-03-26T14:06:26.888Z,98618.36
2018-03-26T14:09:06.039Z,98615.64
2018-03-26T14:11:45.419Z,98618.91
2018-03-26T14:14:24.617Z,98615.77
2018-03-26T14:17:03.790Z,98623.58
2018-03-26T14:19:31.265Z,98626.87
2018-03-26T14:21:58.675Z,98628.44
2018-03-26T14:24:26.572Z,98620.72
2018-03-26T14:26:53.998Z,98624.58
2018-03-26T14:29:21.419Z,98618.52
2018-03-26T14:31:48.841Z,98619.08
2018-03-26T14:34:16.260Z,98616.98
2018-03-26T14:36:43.699Z,98615.28
2018-03-26T14:39:11.101Z,98611.92
2018-03-26T14:41:38.536Z,98620.23
2018-03-26T14:44:05.990Z,98615.83
2018-03-26T14:46:33.398Z,98627.08
2018-03-26T14:49:00.903Z,98621.89
2018-03-26T14:51:28.326Z,98623.32
2018-03-26T14:53:55.727Z,98618.30
2018-03-26T14:56:23.154Z,98618.20
2018-03-26T14:58:50.554Z,98622.87
2018-03-26T15:01:17.967Z,98622.13
2018-03-26T15:03:45.377Z,98624.47
2018-03-26T15:06:12.807Z,98622.78
2018-03-26T15:08:40.211Z,98616.94
2018-03-26T15:11:07.630Z,98625.19
2018-03-26T15:13:35.047Z,98629.11
2018-03-26T15:16:02.459Z,98625.33
2018-03-26T15:18:29.889Z,98626.47
2018-03-26T15:20:57.303Z,98635.00
2018-03-26T15:23:24.710Z,98630.84
2018-03-26T15:25:52.115Z,98635.92
2018-03-26T15:28:19.534Z,98637.91
2018-03-26T15:30:46.958Z,98631.83
2018-03-26T15:33:14.372Z,98636.55
2018-03-26T15:35:41.790Z,98635.36
2018-03-26T15:38:09.226Z,98637.63
2018-03-26T15:40:36.625Z,98643.06
2018-03-26T15:43:04.058Z,98636.07
2018-03-26T15:45:31.454Z,98633.44
2018-03-26T15:47:59.251Z,98637.94
2018-03-26T15:50:26.665Z,98639.55
2018-03-26T15:52:54.077Z,98638.81
2018-03-26T15:55:21.480Z,98638.86
2018-03-26T15:57:48.888Z,98641.78
2018-03-26T16:00:16.377Z,98639.44
2018-03-26T16:02:49.283Z,98638.80
2018-03-26T16:05:16.781Z,98639.06
2018-03-26T16:07:44.193Z,98643.16
2018-03-26T16:10:11.711Z,98645.78
2018-03-26T16:12:39.114Z,98652.81
2018-03-26T16:15:06.517Z,98656.91
2018-03-26T16:17:33.982Z,98656.62
2018-03-26T16:20:01.369Z,98660.29
2018-03-26T16:22:28.805Z,98655.80
2018-03-26T16:24:56.204Z,98663.50
2018-03-26T16:27:23.617Z,98668.30
2018-03-26T16:29:51.026Z,98670.62
2018-03-26T16:32:18.508Z,98668.93
2018-03-26T16:34:45.921Z,98667.91
2018-03-26T16:37:13.344Z,98667.25
2018-03-26T16:39:40.757Z,98670.06
2018-03-26T16:45:14.773Z,98669.06
2018-03-26T16:47:42.098Z,98667.57
2018-03-26T16:50:09.505Z,98677.65
2018-03-26T16:52:36.935Z,98672.87
2018-03-26T16:55:04.347Z,98673.04
2018-03-26T16:57:31.751Z,98677.98
2018-03-26T16:59:59.157Z,98678.89
2018-03-26T17:02:26.593Z,98674.41
2018-03-26T17:04:54.007Z,98676.31
2018-03-26T17:07:21.418Z,98681.55
2018-03-26T17:09:48.824Z,98678.80
2018-03-26T17:12:16.231Z,98689.33
2018-03-26T17:14:43.646Z,98687.13
2018-03-26T17:17:11.099Z,98691.67
2018-03-26T17:19:38.529Z,98690.08
2018-03-26T17:22:05.994Z,98686.41
2018-03-26T17:24:33.381Z,98690.54
2018-03-26T17:27:00.777Z,98690.84
2018-03-26T17:29:28.197Z,98690.39
2018-03-26T17:31:55.622Z,98689.09
2018-03-26T17:34:23.049Z,98702.23
2018-03-26T17:36:50.449Z,98693.47
2018-03-26T17:39:17.872Z,98693.62
2018-03-26T17:41:45.325Z,98698.39
2018-03-26T17:44:12.759Z,98697.36
2018-03-26T17:46:40.160Z,98697.02
2018-03-26T17:49:07.582Z,98708.84
2018-03-26T17:51:34.992Z,98711.59
2018-03-26T17:54:02.401Z,98712.31
2018-03-26T17:56:29.841Z,98707.16
2018-03-26T17:58:57.249Z,98713.84
2018-03-26T18:01:24.669Z,98714.84
2018-03-26T18:03:52.077Z,98710.69
2018-03-26T18:06:19.509Z,98715.77
2018-03-26T18:08:46.913Z,98715.66
2018-03-26T18:11:14.333Z,98714.23
2018-03-26T18:13:41.741Z,98718.63
2018-03-26T18:16:09.152Z,98721.47
2018-03-26T18:18:36.569Z,98718.55
2018-03-26T18:21:04.844Z,98729.17
2018-03-26T18:23:32.236Z,98726.52
2018-03-26T18:25:59.685Z,98727.09
2018-03-26T18:28:27.100Z,98730.48
2018-03-26T18:30:54.509Z,98730.44
2018-03-26T18:33:21.928Z,98733.91
2018-03-26T18:35:49.340Z,98720.97
2018-03-26T18:38:16.756Z,98733.33
2018-03-26T18:40:44.217Z,98741.56
2018-03-26T18:43:11.618Z,98740.38
2018-03-26T18:45:39.042Z,98742.75
2018-03-26T18:48:06.444Z,98741.70
2018-03-26T18:50:33.877Z,98742.48
2018-03-26T18:53:01.322Z,98744.43
2018-03-26T18:55:28.691Z,98744.80
2018-03-26T18:57:56.118Z,98747.92
2018-03-26T19:00:23.525Z,98747.84
2018-03-26T19:02:50.954Z,98751.11
2018-03-26T19:05:18.439Z,98749.49
2018-03-26T19:07:45.864Z,98754.22
2018-03-26T19:10:13.286Z,98752.34
2018-03-26T19:12:40.694Z,98755.07
2018-03-26T19:15:08.098Z,98749.16
2018-03-26T19:17:35.517Z,98760.78
2018-03-26T19:20:03.538Z,98762.09
2018-03-26T19:22:30.946Z,98762.70
2018-03-26T19:24:58.366Z,98769.75
2018-03-26T19:27:25.776Z,98771.69
2018-03-26T19:29:53.292Z,98769.34
2018-03-26T19:32:20.774Z,98777.17
2018-03-26T19:34:48.317Z,98777.06
2018-03-26T19:37:15.879Z,98781.61
2018-03-26T19:39:43.474Z,98778.91
2018-03-26T19:42:11.100Z,98776.98
2018-03-26T19:44:38.763Z,98780.86
2018-03-26T19:47:06.362Z,98784.08
2018-03-26T19:49:33.900Z,98788.77
2018-03-26T19:52:01.387Z,98787.06
2018-03-26T19:54:28.912Z,98793.83
2018-03-26T19:56:56.369Z,98793.31
2018-03-26T19:59:23.821Z,98789.94
2018-03-26T20:01:51.279Z,98794.94
2018-03-26T20:04:18.778Z,98801.08
2018-03-26T20:06:46.467Z,98793.67
2018-03-26T20:09:14.008Z,98795.80
2018-03-26T20:11:41.550Z,98803.08
2018-03-26T20:14:09.905Z,98803.03
2018-03-26T20:16:38.301Z,98800.53
2018-03-26T20:19:05.832Z,98806.09
2018-03-26T20:21:33.320Z,98807.83
2018-03-26T20:24:00.821Z,98807.19
2018-03-26T20:26:28.301Z,98809.39
2018-03-26T20:28:55.733Z,98812.52
2018-03-26T20:31:23.137Z,98812.36
2018-03-26T20:33:50.566Z,98809.94
2018-03-26T20:36:17.974Z,98818.20
2018-03-26T20:38:45.400Z,98819.78
2018-03-26T20:41:12.806Z,98821.64
2018-03-26T20:43:41.067Z,98817.41
2018-03-26T20:46:08.485Z,98829.98
2018-03-26T20:48:35.900Z,98823.94
2018-03-26T20:51:03.338Z,98827.58
2018-03-26T20:53:30.789Z,98826.23
2018-03-26T20:55:58.199Z,98821.97
2018-03-26T20:58:25.684Z,98828.28
2018-03-26T21:00:53.089Z,98822.07
2018-03-26T21:03:20.502Z,98834.29
2018-03-26T21:05:47.914Z,98827.69
2018-03-26T21:08:15.327Z,98822.14
2018-03-26T21:10:42.762Z,98823.23
2018-03-26T21:13:10.169Z,98823.16
2018-03-26T21:15:37.586Z,98828.56
2018-03-26T21:18:04.997Z,98821.50
2018-03-26T21:20:32.401Z,98829.27
2018-03-26T21:22:59.849Z,98816.10
2018-03-26T21:25:27.295Z,98818.16
2018-03-26T21:27:54.702Z,98815.15
2018-03-26T21:30:22.184Z,98819.02
2018-03-26T21:32:49.542Z,98819.55
2018-03-26T21:35:16.970Z,98823.41
2018-03-26T21:37:44.382Z,98820.47
2018-03-26T21:40:11.802Z,98821.22
2018-03-26T21:42:39.248Z,98816.39
2018-03-26T21:45:06.663Z,98816.90
2018-03-26T21:47:34.111Z,98807.45
2018-03-26T21:50:01.539Z,98817.58
2018-03-26T21:52:28.998Z,98813.66
2018-03-26T21:54:56.425Z,98817.25
2018-03-26T21:57:23.836Z,98813.97
2018-03-26T22:24:17.954Z,98800.50
2018-03-26T22:26:46.256Z,98802.60
2018-03-26T22:29:13.711Z,98800.41
2018-03-26T22:31:41.141Z,98801.97
2018-03-26T22:34:08.551Z,98807.26
2018-03-26T22:36:35.979Z,98806.61
2018-03-26T22:39:03.464Z,98798.71
2018-03-26T22:41:30.897Z,98802.41
2018-03-26T22:43:58.311Z,98803.97
2018-03-26T22:46:25.750Z,98800.30
2018-03-26T22:48:53.174Z,98802.48
2018-03-26T22:51:20.591Z,98793.31
2018-03-26T22:53:48.007Z,98802.91
2018-03-26T22:56:15.445Z,98800.70
2018-03-26T22:58:42.960Z,98791.59
2018-03-26T23:01:10.384Z,98799.17
2018-03-26T23:03:37.786Z,98796.52
2018-03-26T23:06:05.244Z,98798.09
2018-03-26T23:08:32.655Z,98791.98
2018-03-26T23:11:00.191Z,98794.08
2018-03-26T23:13:27.597Z,98793.66
2018-03-26T23:15:55.025Z,98789.94
2018-03-26T23:18:22.461Z,98788.83
2018-03-26T23:20:49.894Z,98791.70
2018-03-26T23:23:17.824Z,98792.03
2018-03-26T23:25:45.341Z,98785.93
2018-03-26T23:28:12.775Z,98786.06
2018-03-26T23:30:40.181Z,98789.45
2018-03-26T23:33:07.608Z,98787.63
2018-03-26T23:35:35.015Z,98784.03
2018-03-26T23:38:02.475Z,98783.90
2018-03-26T23:40:29.886Z,98784.08
2018-03-26T23:42:57.321Z,98789.34
2018-03-26T23:45:24.743Z,98785.80
2018-03-26T23:47:52.258Z,98785.69
2018-03-26T23:50:19.666Z,98790.59
2018-03-26T23:52:47.152Z,98780.45
2018-03-26T23:55:14.567Z,98783.09
2018-03-26T23:57:42.006Z,98777.55
